Time;durP1;ratioP1;P1;durP2;ratioP2;P2;SDS_P1;SDS_P2;PMS_P1;PMS_P2;Temp;Humidity;BMP_temperature;BMP_pressure;BME280_temperature;BME280_humidity;BME280_pressure;Samples;Min_cycle;Max_cycle;Signal;HPM_P1;HPM_P2
2020/12/03 00:01:42;;;;;;;;;;;;;;;;;;5007781;28;20384;-91
2020/12/03 00:04:08;;;;;;;;;;;;;;;;;;5001407;28;20483;-90
2020/12/03 00:06:36;;;;;;;;;;;;;;;;;;4998669;28;20388;-91
2020/12/03 00:09:02;;;;;;;;;;;;;;;;;;5013594;28;20473;-90
2020/12/03 00:11:28;;;;;;;;;;;;;;;;;;5036225;28;20751;-91
2020/12/03 00:13:55;;;;;;;;;;;;;;;;;;5036323;28;20751;-91
2020/12/03 00:16:21;;;;;;;;;;;;;;;;;;5035389;28;20402;-91
2020/12/03 00:18:48;;;;;;;;;;;;;;;;;;5029792;28;20465;-92
2020/12/03 00:21:14;;;;;;;;;;;;;;;;;;5041380;28;20497;-90
2020/12/03 00:23:41;;;;;;;;;;;;;;;;;;5031431;28;20406;-92
2020/12/03 00:26:07;;;;;;;;;;;;;;;;;;5030404;28;20389;-92
2020/12/03 00:28:34;;;;;;;;;;;;;;;;;;5025934;28;20476;-92
2020/12/03 00:31:00;;;;;;;;;;;;;;;;;;5043760;28;20424;-92
2020/12/03 00:33:26;;;;;;;;;;;;;;;;;;5044947;28;20418;-92
2020/12/03 00:35:53;;;;;;;;;;;;;;;;;;5048074;28;20400;-90
2020/12/03 00:38:19;;;;;;;;;;;;;;;;;;5052190;28;20449;-87
2020/12/03 00:40:46;;;;;;;;;;;;;;;;;;5044496;28;20473;-92
2020/12/03 00:43:12;;;;;;;;;;;;;;;;;;5049296;28;20375;-91
2020/12/03 00:45:39;;;;;;;;;;;;;;;;;;5040586;28;20403;-90
2020/12/03 00:48:05;;;;;;;;;;;;;;;;;;5038333;28;20382;-91
2020/12/03 00:50:32;;;;;;;;;;;;;;;;;;5041680;28;20398;-90
2020/12/03 00:52:58;;;;;;;;;;;;;;;;;;5035048;28;20439;-90
2020/12/03 00:55:24;;;;;;;;;;;;;;;;;;5033066;28;20393;-90
2020/12/03 00:57:51;;;;;;;;;;;;;;;;;;5036897;28;20394;-90
2020/12/03 01:00:17;;;;;;;;;;;;;;;;;;5024444;28;20777;-91
2020/12/03 01:02:44;;;;;;;;;;;;;;;;;;5018156;28;20753;-90
2020/12/03 01:05:10;;;;;;;;;;;;;;;;;;5034984;28;20390;-92
2020/12/03 01:07:36;;;;;;;;;;;;;;;;;;5031052;28;20390;-91
2020/12/03 01:10:03;;;;;;;;;;;;;;;;;;5018910;28;20415;-91
2020/12/03 01:12:29;;;;;;;;;;;;;;;;;;5016438;28;20397;-91
2020/12/03 01:14:56;;;;;;;;;;;;;;;;;;5027607;28;20386;-90
2020/12/03 01:17:22;;;;;;;;;;;;;;;;;;5020668;28;20413;-90
2020/12/03 01:19:49;;;;;;;;;;;;;;;;;;5021743;28;20408;-90
2020/12/03 01:22:15;;;;;;;;;;;;;;;;;;5046112;28;20365;-88
2020/12/03 01:24:41;;;;;;;;;;;;;;;;;;5039186;28;20382;-87
2020/12/03 01:27:08;;;;;;;;;;;;;;;;;;5034881;28;20389;-91
2020/12/03 01:29:34;;;;;;;;;;;;;;;;;;5050751;28;20421;-90
2020/12/03 01:32:01;;;;;;;;;;;;;;;;;;5045229;28;20401;-87
2020/12/03 01:34:28;;;;;;;;;;;;;;;;;;5054693;28;20474;-90
2020/12/03 01:36:54;;;;;;;;;;;;;;;;;;5029415;28;20877;-90
2020/12/03 01:39:20;;;;;;;;;;;;;;;;;;5020247;28;20405;-91
2020/12/03 01:41:47;;;;;;;;;;;;;;;;;;5040211;28;20378;-91
2020/12/03 01:44:13;;;;;;;;;;;;;;;;;;5045459;28;20393;-86
2020/12/03 01:46:40;;;;;;;;;;;;;;;;;;5054158;28;20378;-90
2020/12/03 01:49:06;;;;;;;;;;;;;;;;;;5055495;28;20381;-87
2020/12/03 01:51:33;;;;;;;;;;;;;;;;;;5061308;28;20386;-87
2020/12/03 01:53:59;;;;;;;;;;;;;;;;;;5045333;28;20372;-87
2020/12/03 01:56:26;;;;;;;;;;;;;;;;;;5041982;28;20415;-88
2020/12/03 01:58:52;;;;;;;;;;;;;;;;;;5047318;28;20397;-85
2020/12/03 02:01:18;;;;;;;;;;;;;;;;;;5054166;28;20376;-87
2020/12/03 02:03:45;;;;;;;;;;;;;;;;;;5061957;28;20384;-87
2020/12/03 02:06:11;;;;;;;;;;;;;;;;;;5049115;28;20370;-85
2020/12/03 02:08:38;;;;;;;;;;;;;;;;;;5061914;28;20434;-83
2020/12/03 02:11:04;;;;;;;;;;;;;;;;;;5051735;28;20417;-89
2020/12/03 02:13:30;;;;;;;;;;;;;;;;;;5041660;28;20383;-91
2020/12/03 02:15:57;;;;;;;;;;;;;;;;;;5042660;28;20406;-88
2020/12/03 02:18:23;;;;;;;;;;;;;;;;;;5030719;28;20823;-89
2020/12/03 02:20:50;;;;;;;;;;;;;;;;;;5055110;28;20397;-85
2020/12/03 02:23:17;;;;;;;;;;;;;;;;;;5046386;28;20381;-88
2020/12/03 02:25:43;;;;;;;;;;;;;;;;;;5044756;28;21134;-87
2020/12/03 02:28:10;;;;;;;;;;;;;;;;;;5049425;28;20435;-89
2020/12/03 02:30:36;;;;;;;;;;;;;;;;;;5052284;28;20410;-90
2020/12/03 02:33:03;;;;;;;;;;;;;;;;;;5051201;28;20395;-91
2020/12/03 02:35:29;;;;;;;;;;;;;;;;;;5042459;28;20469;-86
2020/12/03 02:37:56;;;;;;;;;;;;;;;;;;5045265;28;20490;-89
2020/12/03 02:40:22;;;;;;;;;;;;;;;;;;5041333;28;20439;-91
2020/12/03 02:42:49;;;;;;;;;;;;;;;;;;5037110;28;20387;-89
2020/12/03 02:45:16;;;;;;;;;;;;;;;;;;5042064;28;20474;-91
2020/12/03 02:47:42;;;;;;;;;;;;;;;;;;5057587;28;20398;-86
2020/12/03 02:50:09;;;;;;;;;;;;;;;;;;5039379;28;20402;-86
2020/12/03 02:52:35;;;;;;;;;;;;;;;;;;5043783;28;20384;-85
2020/12/03 02:55:02;;;;;;;;;;;;;;;;;;5057434;28;20382;-89
2020/12/03 02:57:28;;;;;;;;;;;;;;;;;;5043575;28;20421;-91
2020/12/03 02:59:55;;;;;;;;;;;;;;;;;;5033882;28;20497;-91
2020/12/03 03:02:21;;;;;;;;;;;;;;;;;;5030135;28;20394;-91
2020/12/03 03:04:48;;;;;;;;;;;;;;;;;;5024255;28;20385;-91
2020/12/03 03:07:14;;;;;;;;;;;;;;;;;;5031166;28;20374;-91
2020/12/03 03:09:40;;;;;;;;;;;;;;;;;;5042812;28;20461;-91
2020/12/03 03:12:07;;;;;;;;;;;;;;;;;;5048159;28;20397;-91
2020/12/03 03:14:33;;;;;;;;;;;;;;;;;;5041498;28;20387;-90
2020/12/03 03:17:00;;;;;;;;;;;;;;;;;;5026079;28;20401;-91
2020/12/03 03:19:26;;;;;;;;;;;;;;;;;;5029171;28;20912;-91
2020/12/03 03:21:53;;;;;;;;;;;;;;;;;;5046760;28;20367;-84
2020/12/03 03:24:19;;;;;;;;;;;;;;;;;;5039294;28;20404;-92
2020/12/03 03:26:46;;;;;;;;;;;;;;;;;;5031532;28;20389;-91
2020/12/03 03:29:12;;;;;;;;;;;;;;;;;;5020147;28;20477;-91
2020/12/03 03:31:39;;;;;;;;;;;;;;;;;;5026801;28;20393;-90
2020/12/03 03:34:05;;;;;;;;;;;;;;;;;;5027173;28;20586;-92
2020/12/03 03:36:31;;;;;;;;;;;;;;;;;;5021214;28;20813;-93
2020/12/03 03:38:58;;;;;;;;;;;;;;;;;;5040404;28;20418;-93
2020/12/03 03:41:24;;;;;;;;;;;;;;;;;;5044674;28;20402;-86
2020/12/03 03:43:51;;;;;;;;;;;;;;;;;;5047869;28;20382;-90
2020/12/03 03:46:17;;;;;;;;;;;;;;;;;;5023556;28;20389;-88
2020/12/03 03:48:44;;;;;;;;;;;;;;;;;;5024448;28;20401;-88
2020/12/03 03:51:16;;;;;;;;;;;;;;;;;;5044033;28;20481;-87
2020/12/03 03:53:43;;;;;;;;;;;;;;;;;;5033551;28;20761;-89
2020/12/03 03:56:09;;;;;;;;;;;;;;;;;;5019274;28;20502;-90
2020/12/03 03:58:36;;;;;;;;;;;;;;;;;;5045230;28;20396;-88
2020/12/03 04:01:02;;;;;;;;;;;;;;;;;;5037485;28;20419;-88
2020/12/03 04:03:28;;;;;;;;;;;;;;;;;;5017031;28;20389;-89
2020/12/03 04:05:55;;;;;;;;;;;;;;;;;;5016717;28;20397;-90
2020/12/03 04:08:21;;;;;;;;;;;;;;;;;;5024615;28;20390;-89
2020/12/03 04:10:50;;;;;;;;;;;;;;;;;;5024775;28;20425;-89
2020/12/03 04:13:16;;;;;;;;;;;;;;;;;;5031840;28;20862;-88
2020/12/03 04:15:43;;;;;;;;;;;;;;;;;;5028660;28;20470;-89
2020/12/03 04:18:09;;;;;;;;;;;;;;;;;;5035816;28;20386;-88
2020/12/03 04:20:36;;;;;;;;;;;;;;;;;;5036191;28;20770;-89
2020/12/03 04:23:02;;;;;;;;;;;;;;;;;;5034544;28;20390;-89
2020/12/03 04:25:28;;;;;;;;;;;;;;;;;;5028180;28;20383;-87
2020/12/03 04:27:55;;;;;;;;;;;;;;;;;;5016062;28;20403;-89
2020/12/03 04:30:21;;;;;;;;;;;;;;;;;;5016379;28;20791;-88
2020/12/03 04:32:48;;;;;;;;;;;;;;;;;;5016784;28;20818;-87
2020/12/03 04:35:17;;;;;;;;;;;;;;;;;;5034407;28;20386;-89
2020/12/03 04:37:44;;;;;;;;;;;;;;;;;;5032776;28;20402;-89
2020/12/03 04:40:10;;;;;;;;;;;;;;;;;;5028484;28;20480;-90
2020/12/03 04:42:37;;;;;;;;;;;;;;;;;;5031788;28;20394;-90
2020/12/03 04:45:03;;;;;;;;;;;;;;;;;;5017105;28;20469;-89
2020/12/03 04:47:30;;;;;;;;;;;;;;;;;;5018725;28;20381;-90
2020/12/03 04:49:56;;;;;;;;;;;;;;;;;;5017933;28;20508;-89
2020/12/03 04:52:23;;;;;;;;;;;;;;;;;;5034075;28;20898;-89
2020/12/03 04:54:50;;;;;;;;;;;;;;;;;;5024801;28;20760;-89
2020/12/03 04:57:16;;;;;;;;;;;;;;;;;;5018455;28;20794;-89
2020/12/03 04:59:43;;;;;;;;;;;;;;;;;;5017069;28;20406;-88
2020/12/03 05:02:09;;;;;;;;;;;;;;;;;;5036156;28;20394;-89
2020/12/03 05:04:35;;;;;;;;;;;;;;;;;;5031255;28;20393;-89
2020/12/03 05:07:02;;;;;;;;;;;;;;;;;;5026336;28;20393;-89
2020/12/03 05:09:28;;;;;;;;;;;;;;;;;;5029419;28;20423;-88
2020/12/03 05:11:55;;;;;;;;;;;;;;;;;;5028038;28;20391;-89
2020/12/03 05:14:21;;;;;;;;;;;;;;;;;;5034705;28;20819;-89
2020/12/03 05:16:48;;;;;;;;;;;;;;;;;;5036423;28;20867;-89
2020/12/03 05:19:14;;;;;;;;;;;;;;;;;;5028436;28;20413;-88
2020/12/03 05:21:41;;;;;;;;;;;;;;;;;;5031792;28;20397;-90
2020/12/03 05:24:07;;;;;;;;;;;;;;;;;;5030299;28;20414;-89
2020/12/03 05:26:35;;;;;;;;;;;;;;;;;;5041231;28;20390;-88
2020/12/03 05:29:01;;;;;;;;;;;;;;;;;;5037626;28;20417;-88
2020/12/03 05:31:27;;;;;;;;;;;;;;;;;;5019770;28;20393;-88
2020/12/03 05:33:54;;;;;;;;;;;;;;;;;;5036680;28;20394;-88
2020/12/03 05:36:20;;;;;;;;;;;;;;;;;;5030739;28;20408;-90
2020/12/03 05:38:47;;;;;;;;;;;;;;;;;;5029694;28;20386;-89
2020/12/03 05:41:13;;;;;;;;;;;;;;;;;;5025291;28;20417;-89
2020/12/03 05:43:40;;;;;;;;;;;;;;;;;;5021818;28;20480;-90
2020/12/03 05:46:06;;;;;;;;;;;;;;;;;;5024526;28;20879;-90
2020/12/03 05:48:33;;;;;;;;;;;;;;;;;;5032252;28;20390;-88
2020/12/03 05:50:59;;;;;;;;;;;;;;;;;;5031704;28;20414;-87
2020/12/03 05:53:25;;;;;;;;;;;;;;;;;;5018207;28;20407;-88
2020/12/03 05:55:52;;;;;;;;;;;;;;;;;;5025991;28;20759;-88
2020/12/03 05:58:18;;;;;;;;;;;;;;;;;;5031632;28;20734;-87
2020/12/03 06:00:45;;;;;;;;;;;;;;;;;;5057074;28;20386;-89
2020/12/03 06:03:12;;;;;;;;;;;;;;;;;;5023420;28;20393;-90
2020/12/03 06:05:38;;;;;;;;;;;;;;;;;;5024835;28;20378;-89
2020/12/03 06:08:04;;;;;;;;;;;;;;;;;;5026971;28;21005;-90
2020/12/03 06:10:31;;;;;;;;;;;;;;;;;;5033052;28;20903;-89
2020/12/03 06:12:57;;;;;;;;;;;;;;;;;;5029463;28;20389;-90
2020/12/03 06:15:24;;;;;;;;;;;;;;;;;;5024459;28;20379;-90
2020/12/03 06:17:50;;;;;;;;;;;;;;;;;;5037870;28;20500;-90
2020/12/03 06:20:17;;;;;;;;;;;;;;;;;;5033557;28;20413;-90
2020/12/03 06:22:43;;;;;;;;;;;;;;;;;;5022580;28;20388;-90
2020/12/03 06:25:10;;;;;;;;;;;;;;;;;;5021721;28;20403;-89
2020/12/03 06:27:36;;;;;;;;;;;;;;;;;;5032948;28;20387;-89
2020/12/03 06:30:02;;;;;;;;;;;;;;;;;;5036182;28;20413;-89
2020/12/03 06:32:29;;;;;;;;;;;;;;;;;;5050180;28;20505;-89
2020/12/03 06:34:56;;;;;;;;;;;;;;;;;;5053726;28;20399;-90
2020/12/03 06:37:22;;;;;;;;;;;;;;;;;;5056137;28;20454;-88
2020/12/03 06:39:49;;;;;;;;;;;;;;;;;;5061511;28;20399;-88
2020/12/03 06:42:15;;;;;;;;;;;;;;;;;;5055677;28;20382;-89
2020/12/03 06:44:42;;;;;;;;;;;;;;;;;;5045514;28;20395;-89
2020/12/03 06:47:08;;;;;;;;;;;;;;;;;;5058616;28;20371;-89
2020/12/03 06:49:35;;;;;;;;;;;;;;;;;;5058395;28;20470;-90
2020/12/03 06:52:01;;;;;;;;;;;;;;;;;;5048890;28;20374;-88
2020/12/03 06:54:28;;;;;;;;;;;;;;;;;;5044331;28;20445;-91
2020/12/03 06:56:54;;;;;;;;;;;;;;;;;;5043482;28;20428;-89
2020/12/03 06:59:21;;;;;;;;;;;;;;;;;;5045246;28;20462;-88
2020/12/03 07:01:47;;;;;;;;;;;;;;;;;;5039106;28;20421;-87
2020/12/03 07:04:14;;;;;;;;;;;;;;;;;;5044611;28;20379;-87
2020/12/03 07:06:40;;;;;;;;;;;;;;;;;;5042167;28;20468;-87
2020/12/03 07:09:07;;;;;;;;;;;;;;;;;;5030688;28;20398;-89
2020/12/03 07:11:33;;;;;;;;;;;;;;;;;;5054117;28;20465;-89
2020/12/03 07:14:00;;;;;;;;;;;;;;;;;;5043174;28;20390;-89
2020/12/03 07:16:26;;;;;;;;;;;;;;;;;;5033908;28;20405;-89
2020/12/03 07:18:53;;;;;;;;;;;;;;;;;;5036512;28;20387;-89
2020/12/03 07:21:19;;;;;;;;;;;;;;;;;;5045908;28;20385;-87
2020/12/03 07:23:45;;;;;;;;;;;;;;;;;;5042645;28;20878;-87
2020/12/03 07:26:12;;;;;;;;;;;;;;;;;;5041918;28;20421;-88
2020/12/03 07:28:38;;;;;;;;;;;;;;;;;;5043412;28;20374;-89
2020/12/03 07:31:05;;;;;;;;;;;;;;;;;;5056959;28;20414;-87
2020/12/03 07:33:31;;;;;;;;;;;;;;;;;;5048398;28;20371;-89
2020/12/03 07:35:58;;;;;;;;;;;;;;;;;;5041487;28;20454;-89
2020/12/03 07:38:24;;;;;;;;;;;;;;;;;;5041416;28;20397;-87
2020/12/03 07:40:51;;;;;;;;;;;;;;;;;;5040902;28;20863;-86
2020/12/03 07:43:17;;;;;;;;;;;;;;;;;;5041524;28;20387;-85
2020/12/03 07:45:44;;;;;;;;;;;;;;;;;;5050215;28;20384;-87
2020/12/03 07:48:10;;;;;;;;;;;;;;;;;;5053001;28;20429;-87
2020/12/03 07:50:37;;;;;;;;;;;;;;;;;;5036651;28;20402;-87
2020/12/03 07:53:03;;;;;;;;;;;;;;;;;;5035781;28;20402;-88
2020/12/03 07:55:30;;;;;;;;;;;;;;;;;;5032960;28;20734;-87
2020/12/03 07:57:56;;;;;;;;;;;;;;;;;;5038858;28;20402;-87
2020/12/03 08:00:23;;;;;;;;;;;;;;;;;;5037677;28;20411;-87
2020/12/03 08:02:49;;;;;;;;;;;;;;;;;;5037953;28;20626;-88
2020/12/03 08:05:16;;;;;;;;;;;;;;;;;;5038593;28;20756;-86
2020/12/03 08:07:42;;;;;;;;;;;;;;;;;;5051774;28;20383;-85
2020/12/03 08:10:08;;;;;;;;;;;;;;;;;;5049442;28;20389;-86
2020/12/03 08:12:37;;;;;;;;;;;;;;;;;;5024961;28;20389;-87
2020/12/03 08:15:05;;;;;;;;;;;;;;;;;;5036755;28;20410;-86
2020/12/03 08:17:34;;;;;;;;;;;;;;;;;;5032652;28;20407;-87
2020/12/03 08:20:00;;;;;;;;;;;;;;;;;;5034116;28;20460;-85
2020/12/03 08:22:28;;;;;;;;;;;;;;;;;;5038563;28;20398;-86
2020/12/03 08:24:54;;;;;;;;;;;;;;;;;;5036086;28;20396;-86
2020/12/03 08:27:21;;;;;;;;;;;;;;;;;;5045357;28;20390;-85
2020/12/03 08:29:48;;;;;;;;;;;;;;;;;;5059086;28;20411;-87
2020/12/03 08:32:14;;;;;;;;;;;;;;;;;;5048701;28;20458;-85
2020/12/03 08:34:41;;;;;;;;;;;;;;;;;;5038246;28;20874;-85
2020/12/03 08:37:08;;;;;;;;;;;;;;;;;;5034058;28;20410;-87
2020/12/03 08:39:35;;;;;;;;;;;;;;;;;;5038632;28;20410;-85
2020/12/03 08:42:01;;;;;;;;;;;;;;;;;;5041417;28;20390;-85
2020/12/03 08:44:28;;;;;;;;;;;;;;;;;;5038072;28;20387;-86
2020/12/03 08:46:54;;;;;;;;;;;;;;;;;;5053813;28;20614;-86
2020/12/03 08:49:23;;;;;;;;;;;;;;;;;;5048876;28;20403;-86
2020/12/03 08:51:50;;;;;;;;;;;;;;;;;;5044277;28;20474;-85
2020/12/03 08:54:16;;;;;;;;;;;;;;;;;;5040452;28;20386;-86
2020/12/03 08:56:43;;;;;;;;;;;;;;;;;;5044299;28;20404;-88
2020/12/03 08:59:09;;;;;;;;;;;;;;;;;;5053417;28;20787;-88
2020/12/03 09:01:36;;;;;;;;;;;;;;;;;;5038075;28;20391;-86
2020/12/03 09:04:02;;;;;;;;;;;;;;;;;;5029006;28;20389;-87
2020/12/03 09:06:28;;;;;;;;;;;;;;;;;;5025321;28;20385;-86
2020/12/03 09:08:55;;;;;;;;;;;;;;;;;;5038358;28;20400;-84
2020/12/03 09:11:22;;;;;;;;;;;;;;;;;;5049342;28;20374;-86
2020/12/03 09:13:48;;;;;;;;;;;;;;;;;;5036313;28;20394;-84
2020/12/03 09:16:15;;;;;;;;;;;;;;;;;;5036223;28;20416;-85
2020/12/03 09:18:42;;;;;;;;;;;;;;;;;;5068725;28;20368;-83
2020/12/03 09:21:08;;;;;;;;;;;;;;;;;;5063729;28;20379;-81
2020/12/03 09:23:35;;;;;;;;;;;;;;;;;;5059334;28;20421;-82
2020/12/03 09:26:01;;;;;;;;;;;;;;;;;;5057300;28;20477;-83
2020/12/03 09:28:28;;;;;;;;;;;;;;;;;;5057688;28;20402;-84
2020/12/03 09:30:54;;;;;;;;;;;;;;;;;;5056108;28;20927;-83
2020/12/03 09:33:21;;;;;;;;;;;;;;;;;;5055711;28;20383;-84
2020/12/03 09:35:47;;;;;;;;;;;;;;;;;;5059664;28;20414;-81
2020/12/03 09:38:14;;;;;;;;;;;;;;;;;;5058533;28;20386;-84
2020/12/03 09:40:40;;;;;;;;;;;;;;;;;;5057038;28;20425;-84
2020/12/03 09:43:06;;;;;;;;;;;;;;;;;;5037660;28;20383;-85
2020/12/03 09:45:36;;;;;;;;;;;;;;;;;;5048784;28;20389;-82
2020/12/03 09:48:02;;;;;;;;;;;;;;;;;;5065821;28;20364;-81
2020/12/03 09:50:28;;;;;;;;;;;;;;;;;;5056207;28;20426;-82
2020/12/03 09:52:55;;;;;;;;;;;;;;;;;;5063712;28;20393;-84
2020/12/03 09:55:21;;;;;;;;;;;;;;;;;;5064094;28;20411;-84
2020/12/03 09:57:48;;;;;;;;;;;;;;;;;;5061441;28;20453;-83
2020/12/03 10:00:15;;;;;;;;;;;;;;;;;;5057304;28;20398;-85
2020/12/03 10:02:41;;;;;;;;;;;;;;;;;;5057244;28;20366;-83
2020/12/03 10:05:08;;;;;;;;;;;;;;;;;;5068477;28;20359;-82
2020/12/03 10:07:34;;;;;;;;;;;;;;;;;;5052561;28;20458;-82
2020/12/03 10:10:01;;;;;;;;;;;;;;;;;;5060318;28;20391;-86
2020/12/03 10:12:27;;;;;;;;;;;;;;;;;;5060174;28;20387;-85
2020/12/03 10:14:53;;;;;;;;;;;;;;;;;;5044987;28;20390;-84
2020/12/03 10:17:20;;;;;;;;;;;;;;;;;;5043424;28;20410;-84
2020/12/03 10:19:46;;;;;;;;;;;;;;;;;;5040374;28;20420;-83
2020/12/03 10:22:13;;;;;;;;;;;;;;;;;;5049148;28;20389;-83
2020/12/03 10:24:39;;;;;;;;;;;;;;;;;;5056301;28;20366;-83
2020/12/03 10:27:07;;;;;;;;;;;;;;;;;;5049729;28;20372;-85
2020/12/03 10:29:34;;;;;;;;;;;;;;;;;;5038600;28;21516;-85
2020/12/03 10:32:00;;;;;;;;;;;;;;;;;;5051505;28;20372;-82
2020/12/03 10:34:34;;;;;;;;;;;;;;;;;;5047325;28;20412;-85
2020/12/03 10:37:01;;;;;;;;;;;;;;;;;;5055649;28;20393;-85
2020/12/03 10:39:28;;;;;;;;;;;;;;;;;;5058808;28;20869;-84
2020/12/03 10:41:54;;;;;;;;;;;;;;;;;;5044580;28;20419;-82
2020/12/03 10:44:21;;;;;;;;;;;;;;;;;;5039267;28;20413;-84
2020/12/03 10:46:48;;;;;;;;;;;;;;;;;;5043381;28;20390;-81
2020/12/03 10:49:15;;;;;;;;;;;;;;;;;;5042332;28;20442;-82
2020/12/03 10:51:42;;;;;;;;;;;;;;;;;;5041988;28;20544;-82
2020/12/03 10:54:08;;;;;;;;;;;;;;;;;;5054191;28;20362;-82
2020/12/03 10:56:37;;;;;;;;;;;;;;;;;;5044496;28;20404;-85
2020/12/03 10:59:06;;;;;;;;;;;;;;;;;;5041302;28;20375;-85
2020/12/03 11:01:32;;;;;;;;;;;;;;;;;;5056171;28;20423;-83
2020/12/03 11:03:59;;;;;;;;;;;;;;;;;;5047240;28;20390;-84
2020/12/03 11:06:26;;;;;;;;;;;;;;;;;;5040082;28;20458;-84
2020/12/03 11:08:53;;;;;;;;;;;;;;;;;;5055604;28;20388;-82
2020/12/03 11:11:20;;;;;;;;;;;;;;;;;;5041251;28;20398;-85
2020/12/03 11:13:46;;;;;;;;;;;;;;;;;;5037218;28;20404;-83
2020/12/03 11:16:12;;;;;;;;;;;;;;;;;;5042463;28;20386;-83
2020/12/03 11:18:39;;;;;;;;;;;;;;;;;;5040469;28;20401;-84
2020/12/03 11:23:48;;;;;;;;;;;;;;;;;;5001583;28;20394;-84
2020/12/03 11:26:14;;;;;;;;;;;;;;;;;;5001534;28;20399;-86
2020/12/03 11:28:41;;;;;;;;;;;;;;;;;;5001569;28;20423;-84
2020/12/03 11:31:07;;;;;;;;;;;;;;;;;;5003865;28;20423;-87
2020/12/03 11:33:33;;;;;;;;;;;;;;;;;;5004375;28;20415;-86
2020/12/03 11:36:00;;;;;;;;;;;;;;;;;;5000453;28;20392;-83
2020/12/03 11:38:31;;;;;;;;;;;;;;;;;;5003244;28;20494;-86
2020/12/03 11:40:59;;;;;;;;;;;;;;;;;;4999896;28;20415;-84
2020/12/03 11:43:37;;;;;;;;;;;;;;;;;;5008014;28;20393;-87
2020/12/03 11:48:53;;;;;;;;;;;;;;;;;;4981725;28;20410;-85
2020/12/03 11:51:20;;;;;;;;;;;;;;;;;;5007077;28;20435;-87
2020/12/03 11:53:46;;;;;;;;;;;;;;;;;;5012037;28;20400;-87
2020/12/03 11:56:12;;;;;;;;;;;;;;;;;;5000440;28;20388;-84
2020/12/03 11:58:39;;;;;;;;;;;;;;;;;;5012041;28;20406;-84
2020/12/03 12:01:05;;;;;;;;;;;;;;;;;;5039330;28;20406;-80
2020/12/03 12:03:32;;;;;;;;;;;;;;;;;;5055835;28;20375;-87
2020/12/03 12:06:04;;;;;;;;;;;;;;;;;;5049536;28;20406;-87
2020/12/03 12:08:35;;;;;;;;;;;;;;;;;;5054000;28;20386;-87
2020/12/03 12:11:08;;;;;;;;;;;;;;;;;;5055657;28;20410;-86
2020/12/03 12:13:34;;;;;;;;;;;;;;;;;;5047938;28;20384;-88
2020/12/03 12:16:03;;;;;;;;;;;;;;;;;;5047653;28;20409;-85
2020/12/03 12:18:29;;;;;;;;;;;;;;;;;;5057721;28;20386;-87
2020/12/03 12:20:56;;;;;;;;;;;;;;;;;;5055874;28;20411;-86
2020/12/03 12:23:22;;;;;;;;;;;;;;;;;;5057607;28;20386;-86
2020/12/03 12:25:50;;;;;;;;;;;;;;;;;;5052969;28;20399;-83
2020/12/03 12:28:16;;;;;;;;;;;;;;;;;;5056463;28;20362;-84
2020/12/03 12:30:43;;;;;;;;;;;;;;;;;;5054129;28;20402;-87
2020/12/03 12:33:09;;;;;;;;;;;;;;;;;;5052702;28;20401;-87
2020/12/03 12:35:36;;;;;;;;;;;;;;;;;;5062919;28;20387;-84
2020/12/03 12:38:02;;;;;;;;;;;;;;;;;;5054641;28;20410;-86
2020/12/03 12:40:29;;;;;;;;;;;;;;;;;;5060099;28;20387;-83
2020/12/03 12:42:55;;;;;;;;;;;;;;;;;;5053767;28;20409;-83
2020/12/03 12:45:22;;;;;;;;;;;;;;;;;;5061301;28;20379;-84
2020/12/03 12:47:48;;;;;;;;;;;;;;;;;;5055721;28;20384;-85
2020/12/03 12:50:16;;;;;;;;;;;;;;;;;;5051899;28;20406;-87
2020/12/03 12:52:42;;;;;;;;;;;;;;;;;;5050123;28;20380;-86
2020/12/03 12:55:11;;;;;;;;;;;;;;;;;;5048041;28;21431;-85
2020/12/03 12:57:39;;;;;;;;;;;;;;;;;;5041337;28;20389;-84
2020/12/03 13:00:05;;;;;;;;;;;;;;;;;;5049692;28;20410;-86
2020/12/03 13:02:32;;;;;;;;;;;;;;;;;;5050864;28;20751;-86
2020/12/03 13:05:00;;;;;;;;;;;;;;;;;;5038018;28;20400;-85
2020/12/03 13:07:27;;;;;;;;;;;;;;;;;;5039717;28;20375;-87
2020/12/03 13:09:53;;;;;;;;;;;;;;;;;;5045782;28;20409;-84
2020/12/03 13:12:21;;;;;;;;;;;;;;;;;;5050717;28;20370;-83
2020/12/03 13:14:48;;;;;;;;;;;;;;;;;;5051059;28;20887;-85
2020/12/03 13:17:15;;;;;;;;;;;;;;;;;;5055555;28;20406;-85
2020/12/03 13:19:41;;;;;;;;;;;;;;;;;;5056649;28;20390;-87
2020/12/03 13:22:08;;;;;;;;;;;;;;;;;;5053514;28;20370;-84
2020/12/03 13:24:34;;;;;;;;;;;;;;;;;;5064758;28;20364;-84
2020/12/03 13:27:01;;;;;;;;;;;;;;;;;;5049443;28;20408;-84
2020/12/03 13:29:27;;;;;;;;;;;;;;;;;;5045908;28;20415;-87
2020/12/03 13:31:54;;;;;;;;;;;;;;;;;;5027376;28;20390;-85
2020/12/03 13:34:20;;;;;;;;;;;;;;;;;;5039357;28;20398;-88
2020/12/03 13:36:47;;;;;;;;;;;;;;;;;;5055107;28;20455;-85
2020/12/03 13:39:13;;;;;;;;;;;;;;;;;;5063583;28;20441;-83
2020/12/03 13:41:40;;;;;;;;;;;;;;;;;;5042903;28;20386;-87
2020/12/03 13:44:07;;;;;;;;;;;;;;;;;;5038364;28;20394;-85
2020/12/03 13:46:37;;;;;;;;;;;;;;;;;;5047025;28;20383;-86
2020/12/03 13:49:04;;;;;;;;;;;;;;;;;;5045531;28;20382;-86
2020/12/03 13:51:30;;;;;;;;;;;;;;;;;;5052727;28;20383;-86
2020/12/03 13:53:57;;;;;;;;;;;;;;;;;;5054407;28;20390;-86
2020/12/03 13:56:23;;;;;;;;;;;;;;;;;;5044552;28;20384;-86
2020/12/03 13:58:50;;;;;;;;;;;;;;;;;;5061984;28;20387;-85
2020/12/03 14:01:16;;;;;;;;;;;;;;;;;;5048463;28;20411;-86
2020/12/03 14:03:42;;;;;;;;;;;;;;;;;;5043290;28;20397;-85
2020/12/03 14:06:09;;;;;;;;;;;;;;;;;;5051965;28;20391;-87
2020/12/03 14:08:35;;;;;;;;;;;;;;;;;;5059541;28;20370;-82
2020/12/03 14:11:01;;;;;;;;;;;;;;;;;;5057012;28;20433;-86
2020/12/03 14:13:28;;;;;;;;;;;;;;;;;;5050339;28;20390;-87
2020/12/03 14:15:54;;;;;;;;;;;;;;;;;;5035171;28;20384;-85
2020/12/03 14:18:21;;;;;;;;;;;;;;;;;;5045123;28;20903;-82
2020/12/03 14:20:47;;;;;;;;;;;;;;;;;;5039464;28;20410;-83
2020/12/03 14:23:14;;;;;;;;;;;;;;;;;;5042415;28;20402;-85
2020/12/03 14:25:40;;;;;;;;;;;;;;;;;;5043120;28;20393;-87
2020/12/03 14:28:06;;;;;;;;;;;;;;;;;;5050495;28;20385;-87
2020/12/03 14:30:33;;;;;;;;;;;;;;;;;;5040422;28;20459;-89
2020/12/03 14:32:59;;;;;;;;;;;;;;;;;;5049370;28;20426;-87
2020/12/03 14:35:26;;;;;;;;;;;;;;;;;;5039468;28;20412;-88
2020/12/03 14:37:52;;;;;;;;;;;;;;;;;;5042179;28;20405;-84
2020/12/03 14:40:19;;;;;;;;;;;;;;;;;;5046317;28;20406;-88
2020/12/03 14:42:48;;;;;;;;;;;;;;;;;;5042934;28;20380;-86
2020/12/03 14:45:14;;;;;;;;;;;;;;;;;;5033989;28;20736;-85
2020/12/03 14:47:41;;;;;;;;;;;;;;;;;;5039901;28;20379;-84
2020/12/03 14:50:10;;;;;;;;;;;;;;;;;;5033389;28;20418;-85
2020/12/03 14:52:37;;;;;;;;;;;;;;;;;;5041205;28;20832;-85
2020/12/03 14:55:03;;;;;;;;;;;;;;;;;;5040583;28;20405;-84
2020/12/03 14:57:35;;;;;;;;;;;;;;;;;;5041447;28;20425;-82
2020/12/03 15:00:04;;;;;;;;;;;;;;;;;;5034110;28;20403;-85
2020/12/03 15:02:32;;;;;;;;;;;;;;;;;;5061091;28;20388;-82
2020/12/03 15:04:59;;;;;;;;;;;;;;;;;;5050036;28;20387;-83
2020/12/03 15:07:26;;;;;;;;;;;;;;;;;;5052920;28;20747;-84
2020/12/03 15:09:54;;;;;;;;;;;;;;;;;;5034760;28;20406;-83
2020/12/03 15:12:22;;;;;;;;;;;;;;;;;;5044140;28;20391;-85
2020/12/03 15:14:49;;;;;;;;;;;;;;;;;;5042129;28;20395;-84
2020/12/03 15:17:15;;;;;;;;;;;;;;;;;;5042333;28;20409;-84
2020/12/03 15:19:41;;;;;;;;;;;;;;;;;;5028449;28;20431;-86
2020/12/03 15:22:08;;;;;;;;;;;;;;;;;;5028461;28;20735;-84
2020/12/03 15:24:34;;;;;;;;;;;;;;;;;;5045582;28;20383;-83
2020/12/03 15:27:01;;;;;;;;;;;;;;;;;;5037571;28;20380;-83
2020/12/03 15:29:27;;;;;;;;;;;;;;;;;;5024226;28;20409;-86
2020/12/03 15:31:54;;;;;;;;;;;;;;;;;;5025004;28;20403;-85
2020/12/03 15:34:28;;;;;;;;;;;;;;;;;;5021391;28;20758;-85
2020/12/03 15:36:54;;;;;;;;;;;;;;;;;;5027213;28;20408;-85
2020/12/03 15:39:29;;;;;;;;;;;;;;;;;;5033968;28;20898;-84
2020/12/03 15:41:56;;;;;;;;;;;;;;;;;;5032174;28;20504;-86
2020/12/03 15:44:30;;;;;;;;;;;;;;;;;;5036274;28;20390;-87
2020/12/03 15:46:56;;;;;;;;;;;;;;;;;;5048484;28;20398;-86
2020/12/03 15:49:23;;;;;;;;;;;;;;;;;;5057073;28;20421;-86
2020/12/03 15:51:50;;;;;;;;;;;;;;;;;;5047912;28;20469;-86
2020/12/03 15:54:16;;;;;;;;;;;;;;;;;;5046535;28;20415;-85
2020/12/03 15:56:43;;;;;;;;;;;;;;;;;;5041066;28;20397;-86
2020/12/03 15:59:11;;;;;;;;;;;;;;;;;;5032473;28;20399;-83
2020/12/03 16:01:38;;;;;;;;;;;;;;;;;;5042781;28;20923;-83
2020/12/03 16:04:04;;;;;;;;;;;;;;;;;;5038898;28;20397;-84
2020/12/03 16:06:31;;;;;;;;;;;;;;;;;;5044159;28;20386;-83
2020/12/03 16:09:02;;;;;;;;;;;;;;;;;;5052185;28;20384;-85
2020/12/03 16:11:29;;;;;;;;;;;;;;;;;;5058023;28;20374;-84
2020/12/03 16:13:56;;;;;;;;;;;;;;;;;;5042107;28;20370;-83
2020/12/03 16:16:26;;;;;;;;;;;;;;;;;;5046506;28;20384;-84
2020/12/03 16:19:03;;;;;;;;;;;;;;;;;;5045986;28;20474;-85
2020/12/03 16:21:29;;;;;;;;;;;;;;;;;;5041780;28;20398;-85
2020/12/03 16:23:56;;;;;;;;;;;;;;;;;;5035349;28;20393;-85
2020/12/03 16:26:22;;;;;;;;;;;;;;;;;;5043065;28;20386;-83
2020/12/03 16:28:52;;;;;;;;;;;;;;;;;;5044557;28;20378;-84
2020/12/03 16:31:18;;;;;;;;;;;;;;;;;;5051122;28;20429;-84
2020/12/03 16:33:45;;;;;;;;;;;;;;;;;;5047509;28;20799;-83
2020/12/03 16:36:11;;;;;;;;;;;;;;;;;;5037252;28;20392;-84
2020/12/03 16:38:38;;;;;;;;;;;;;;;;;;5039259;28;20418;-83
2020/12/03 16:41:06;;;;;;;;;;;;;;;;;;5036138;28;20417;-83
2020/12/03 16:43:33;;;;;;;;;;;;;;;;;;5037943;28;20426;-84
2020/12/03 16:46:05;;;;;;;;;;;;;;;;;;5036364;28;20391;-82
2020/12/03 16:48:31;;;;;;;;;;;;;;;;;;5047524;28;20376;-81